全部
Haakdoornboom Airport (Haakdoornboom, Gauteng, South Africa) FAHK 天气
There is no TAF data available at FAHK. Showing TAF data for FAWB (6 mi SE).
PRY终端机场天气预报(FAHK无数据)
| Date | Time (SAST) | Flight Rules | Wind Dir. | Speed | Type | Height AGL (ft) | Visibility | Remarks | ||||||
|---|---|---|---|---|---|---|---|---|---|---|---|---|---|---|
There is no METAR data available at FAHK. Showing METAR data for FAWB (6 mi SE).
PRY近期METAR历史数据(FAHK无数据)
| Date | Time (SAST) | Flight Rules | Wind Dir. | Speed | Type | Height AGL (ft) | Visibility | Temp (°C) | Temp (°F) | Dew Point (°C) | Dew Point (°F) | Rel. Humid. | Pressure | Density Altitude | Remarks |
|---|---|---|---|---|---|---|---|---|---|---|---|---|---|---|---|
| gap in available data | |||||||||||||||
| 05-五月 | 20:00 | n/a | 80° | 1 kt | Missing | 15° | 59° | 15° | 59° | 100% | 1013 mb | 5,052 ft | |||
| 05-五月 | 19:00 | n/a | 170° | 3 kt | Missing | 15° | 59° | 15° | 59° | 100% | 1012 mb | 5,081 ft | Wind gusting to 15 KT | ||
| 05-五月 | 18:00 | n/a | 70° | 7 kt | Missing | 16° | 60° | 16° | 60° | 100% | 1012 mb | 5,201 ft | |||
| 05-五月 | 17:00 | n/a | 110° | 4 kt | Missing | 16° | 60° | 16° | 60° | 100% | 1011 mb | 5,231 ft | |||
| 05-五月 | 16:00 | n/a | 290° | 2 kt | Missing | 16° | 60° | 16° | 60° | 100% | 1013 mb | 5,172 ft | Wind gusting to 26 KT | ||
| 05-五月 | 15:00 | n/a | 260° | 17 kt | Missing | 16° | 60° | 16° | 60° | 100% | 1013 mb | 5,172 ft | Wind gusting to 34 KT | ||
| 05-五月 | 14:00 | n/a | 330° | 12 kt | Missing | 19° | 66° | 14° | 57° | 73% | 1011 mb | 5,591 ft | |||
| 05-五月 | 13:00 | n/a | 360° | 7 kt | Missing | 20° | 68° | 15° | 59° | 73% | 1012 mb | 5,681 ft | Wind gusting to 20 KT | ||
| 05-五月 | 12:00 | n/a | 10° | 10 kt | Missing | 24° | 75° | 13° | 55° | 50% | 1013 mb | 6,132 ft | |||
| 05-五月 | 11:00 | n/a | 20° | 8 kt | Missing | 22° | 71° | 14° | 57° | 60% | 1014 mb | 5,862 ft | |||
| 05-五月 | 10:00 | n/a | 50° | 6 kt | Missing | 21° | 69° | 15° | 59° | 69% | 1016 mb | 5,683 ft | |||
| 05-五月 | 09:00 | n/a | 90° | 3 kt | Missing | 19° | 66° | 16° | 60° | 83% | 1016 mb | 5,443 ft | |||
| 05-五月 | 08:00 | n/a | 100° | 2 kt | Missing | 16° | 60° | 16° | 60° | 100% | 1017 mb | 5,053 ft | |||
| 05-五月 | 07:00 | n/a | 70° | 3 kt | Missing | 15° | 59° | 15° | 59° | 100% | 1017 mb | 4,933 ft | |||
| 05-五月 | 06:00 | n/a | 130° | 2 kt | Missing | 15° | 59° | 15° | 59° | 100% | 1016 mb | 4,963 ft | |||
| 05-五月 | 05:00 | n/a | 110° | 4 kt | Missing | 15° | 59° | 15° | 59° | 100% | 1017 mb | 4,933 ft | |||
| 05-五月 | 04:00 | n/a | 240° | 6 kt | Missing | 16° | 60° | 16° | 60° | 100% | 1018 mb | 5,024 ft | Wind gusting to 19 KT | ||
| 05-五月 | 03:00 | n/a | Calm | Missing | 17° | 62° | 14° | 57° | 82% | 1017 mb | 5,173 ft | ||||
| 05-五月 | 02:00 | n/a | 90° | 3 kt | Missing | 15° | 59° | 15° | 59° | 100% | 1017 mb | 4,933 ft | |||
| 05-五月 | 01:00 | n/a | 70° | 2 kt | Missing | 15° | 59° | 15° | 59° | 100% | 1017 mb | 4,933 ft | |||
| 05-五月 | 00:00 | n/a | 110° | 3 kt | Missing | 15° | 59° | 15° | 59° | 100% | 1018 mb | 4,904 ft | |||
| 04-五月 | 23:00 | n/a | 110° | 1 kt | Missing | 16° | 60° | 16° | 60° | 100% | 1018 mb | 5,024 ft | |||
| 04-五月 | 22:00 | n/a | 170° | 1 kt | Missing | 15° | 59° | 15° | 59° | 100% | 1019 mb | 4,874 ft | |||
| 04-五月 | 21:00 | n/a | 150° | 3 kt | Missing | 16° | 60° | 15° | 59° | 94% | 1019 mb | 4,994 ft | |||
登录
| 您的浏览器不支持. 升级您的浏览器 |
